createdAt,value
2023-03-15T00:00:17.697Z,77.66
2023-03-15T00:02:45.996Z,77.56
2023-03-15T00:05:15.809Z,77.49
2023-03-15T00:07:45.419Z,77.47
2023-03-15T00:10:18.801Z,77.32
2023-03-15T00:12:53.015Z,77.41
2023-03-15T00:15:21.388Z,77.39
2023-03-15T00:17:49.610Z,77.38
2023-03-15T00:20:24.684Z,77.56
2023-03-15T00:22:53.236Z,77.61
2023-03-15T00:25:24.637Z,77.89
2023-03-15T00:27:52.828Z,77.69
2023-03-15T00:30:21.095Z,77.26
2023-03-15T00:32:49.996Z,77.15
2023-03-15T00:35:18.613Z,77.22
2023-03-15T00:37:58.583Z,77.31
2023-03-15T00:40:26.832Z,77.34
2023-03-15T00:42:57.684Z,77.56
2023-03-15T00:45:32.353Z,77.80
2023-03-15T00:48:00.637Z,77.97
2023-03-15T00:50:29.019Z,78.53
2023-03-15T00:52:58.662Z,78.77
2023-03-15T00:55:29.669Z,78.95
2023-03-15T00:57:58.467Z,78.92
2023-03-15T01:00:28.101Z,78.77
2023-03-15T01:02:57.778Z,79.26
2023-03-15T01:05:26.916Z,79.11
2023-03-15T01:07:55.927Z,79.41
2023-03-15T01:10:35.920Z,79.93
2023-03-15T01:13:04.106Z,79.73
2023-03-15T01:15:32.763Z,79.75
2023-03-15T01:18:01.807Z,79.80
2023-03-15T01:20:30.297Z,80.08
2023-03-15T01:22:58.952Z,80.41
2023-03-15T01:25:27.371Z,80.22
2023-03-15T01:27:55.650Z,80.23
2023-03-15T01:30:29.147Z,80.59
2023-03-15T01:32:57.529Z,80.92
2023-03-15T01:35:36.177Z,80.55
2023-03-15T01:38:04.621Z,80.50
2023-03-15T01:40:34.423Z,80.32
2023-03-15T01:43:11.363Z,80.48
2023-03-15T01:45:58.874Z,80.32
2023-03-15T01:48:44.930Z,80.82
2023-03-15T01:51:36.630Z,80.79
2023-03-15T01:54:11.683Z,80.86
2023-03-15T01:56:42.406Z,80.44
2023-03-15T01:59:12.658Z,80.53
2023-03-15T02:01:45.898Z,80.94
2023-03-15T02:04:19.151Z,80.89
2023-03-15T02:06:48.225Z,80.89
2023-03-15T02:09:17.909Z,80.54
2023-03-15T02:11:51.921Z,80.15
2023-03-15T02:14:22.654Z,79.80
2023-03-15T02:16:58.783Z,79.19
2023-03-15T02:19:41.771Z,78.90
2023-03-15T02:29:12.968Z,77.90
2023-03-15T02:31:40.796Z,77.55
2023-03-15T02:34:07.629Z,76.86
2023-03-15T02:36:34.994Z,76.70
2023-03-15T02:39:02.985Z,76.76
2023-03-15T02:41:41.934Z,76.74
2023-03-15T02:44:17.947Z,76.43
2023-03-15T02:46:45.908Z,76.45
2023-03-15T02:49:12.945Z,76.44
2023-03-15T02:51:41.101Z,76.12
2023-03-15T02:54:13.732Z,75.93
2023-03-15T02:56:44.953Z,75.68
2023-03-15T02:59:12.284Z,75.69
2023-03-15T03:01:45.465Z,75.33
2023-03-15T03:04:12.717Z,75.56
2023-03-15T03:06:42.580Z,75.44
2023-03-15T03:09:17.824Z,75.10
2023-03-15T03:11:44.704Z,75.38
2023-03-15T03:14:15.550Z,75.80
2023-03-15T03:16:49.985Z,75.77
2023-03-15T03:19:17.687Z,75.27
2023-03-15T03:21:51.833Z,74.86
2023-03-15T03:24:20.101Z,74.87
2023-03-15T03:26:47.121Z,75.21
2023-03-15T03:29:16.059Z,75.41
2023-03-15T03:31:44.642Z,75.34
2023-03-15T03:34:21.136Z,75.57
2023-03-15T03:36:49.940Z,75.72
2023-03-15T03:39:20.290Z,76.26
2023-03-15T03:41:47.524Z,76.58
2023-03-15T03:44:15.324Z,77.40
2023-03-15T03:46:45.085Z,77.68
2023-03-15T03:49:14.482Z,78.00
2023-03-15T03:51:41.710Z,78.00
2023-03-15T03:54:09.159Z,78.19
2023-03-15T03:56:38.847Z,77.96
2023-03-15T03:59:06.324Z,78.31
2023-03-15T04:01:43.163Z,78.68
2023-03-15T04:04:13.760Z,79.08
2023-03-15T04:06:45.268Z,79.22
2023-03-15T04:09:15.615Z,79.52
2023-03-15T04:11:56.934Z,79.43
2023-03-15T04:14:24.894Z,79.28
2023-03-15T04:16:51.861Z,79.13
2023-03-15T04:19:22.692Z,79.02
2023-03-15T04:21:52.505Z,79.13
2023-03-15T04:24:51.995Z,78.98
2023-03-15T04:27:29.494Z,78.62
2023-03-15T04:30:08.214Z,78.52
2023-03-15T04:32:44.979Z,78.21
2023-03-15T04:35:22.214Z,77.96
2023-03-15T04:38:05.236Z,77.29
2023-03-15T04:41:15.770Z,77.09
2023-03-15T04:44:05.815Z,76.98
2023-03-15T04:46:40.262Z,77.05
2023-03-15T04:49:31.292Z,77.07
2023-03-15T04:52:33.191Z,77.16
2023-03-15T04:55:22.949Z,77.37
2023-03-15T04:58:13.420Z,77.11
2023-03-15T05:01:01.291Z,76.85
2023-03-15T05:03:46.987Z,76.85
2023-03-15T05:06:19.564Z,76.69
2023-03-15T05:09:18.091Z,76.04
2023-03-15T05:12:11.609Z,75.76
2023-03-15T05:14:54.273Z,75.38
2023-03-15T05:17:27.435Z,75.26
2023-03-15T05:20:16.109Z,74.72
2023-03-15T05:22:44.491Z,74.30
2023-03-15T05:25:37.581Z,74.33
2023-03-15T05:28:25.515Z,74.13
2023-03-15T05:31:12.248Z,74.14
2023-03-15T05:34:03.856Z,73.33
2023-03-15T05:36:37.856Z,72.85
2023-03-15T05:39:22.571Z,72.99
2023-03-15T05:42:08.923Z,73.07
2023-03-15T05:44:57.697Z,72.79
2023-03-15T05:47:44.655Z,72.59
2023-03-15T05:50:23.768Z,72.20
2023-03-15T05:53:14.661Z,72.01
2023-03-15T05:55:50.971Z,71.76
2023-03-15T05:58:41.937Z,71.86
2023-03-15T06:01:28.010Z,71.74
2023-03-15T06:04:09.746Z,71.57
2023-03-15T06:06:38.503Z,71.38
2023-03-15T06:09:07.241Z,72.14
2023-03-15T06:11:35.019Z,70.85
2023-03-15T06:14:02.975Z,68.85
2023-03-15T06:16:52.764Z,68.42
2023-03-15T06:19:20.743Z,69.14
2023-03-15T06:21:47.833Z,69.03
2023-03-15T06:24:22.075Z,69.32
2023-03-15T06:26:48.904Z,69.59
2023-03-15T06:29:16.809Z,69.34
2023-03-15T06:31:47.704Z,69.14
2023-03-15T06:34:15.371Z,69.07
2023-03-15T06:36:44.429Z,68.77
2023-03-15T06:39:14.283Z,68.18
2023-03-15T06:41:41.259Z,67.39
2023-03-15T06:44:13.141Z,66.97
2023-03-15T06:46:40.489Z,66.90
2023-03-15T06:49:12.007Z,66.81
2023-03-15T06:51:44.567Z,66.58
2023-03-15T06:54:11.770Z,66.45
2023-03-15T06:56:38.793Z,65.72
2023-03-15T06:59:05.842Z,64.94
2023-03-15T07:01:36.179Z,64.54
2023-03-15T07:04:03.191Z,64.87
2023-03-15T07:06:31.573Z,64.88
2023-03-15T07:08:58.862Z,64.45
2023-03-15T07:11:25.705Z,64.30
2023-03-15T07:13:52.625Z,64.21
2023-03-15T07:16:19.958Z,63.99
2023-03-15T07:18:47.625Z,63.54
2023-03-15T07:21:14.592Z,62.83
2023-03-15T07:23:42.180Z,62.96
2023-03-15T07:26:12.049Z,63.34
2023-03-15T07:28:49.374Z,62.86
2023-03-15T07:31:17.329Z,61.39
2023-03-15T07:33:44.401Z,60.17
2023-03-15T07:36:11.687Z,59.30
2023-03-15T07:38:40.782Z,59.31
2023-03-15T07:41:09.860Z,58.53
2023-03-15T07:43:38.997Z,58.27
2023-03-15T07:46:17.413Z,57.49
2023-03-15T07:48:46.965Z,57.16
2023-03-15T07:51:14.037Z,56.02
2023-03-15T07:53:42.647Z,55.43
2023-03-15T07:56:10.331Z,54.77
2023-03-15T07:58:38.047Z,54.38
2023-03-15T08:01:08.809Z,53.79
2023-03-15T08:03:35.780Z,53.65
2023-03-15T08:06:05.783Z,53.45
2023-03-15T08:08:36.453Z,52.94
2023-03-15T08:11:09.945Z,53.00
2023-03-15T08:13:42.667Z,52.59
2023-03-15T08:16:10.146Z,52.37
2023-03-15T08:18:46.298Z,51.91
2023-03-15T08:21:12.984Z,51.71
2023-03-15T08:23:40.378Z,51.36
2023-03-15T08:26:09.099Z,51.30
2023-03-15T08:28:36.170Z,51.39
2023-03-15T08:31:06.101Z,50.84
2023-03-15T08:33:32.959Z,49.67
2023-03-15T08:36:05.067Z,49.18
2023-03-15T08:38:31.979Z,48.74
2023-03-15T08:40:59.741Z,48.21
2023-03-15T08:43:26.852Z,48.34
2023-03-15T08:46:01.984Z,47.94
2023-03-15T08:48:31.014Z,47.71
2023-03-15T08:51:03.571Z,47.01
2023-03-15T08:53:31.519Z,46.79
2023-03-15T08:55:58.318Z,46.02
2023-03-15T08:58:25.256Z,45.42
2023-03-15T09:00:52.666Z,45.16
2023-03-15T09:03:19.646Z,44.43
2023-03-15T09:05:46.728Z,44.21
2023-03-15T09:08:14.345Z,43.12
2023-03-15T09:10:42.896Z,42.39
2023-03-15T09:13:10.644Z,41.51
2023-03-15T09:15:37.485Z,40.96
2023-03-15T09:18:06.192Z,41.17
2023-03-15T09:20:33.028Z,41.02
2023-03-15T09:23:00.341Z,41.38
2023-03-15T09:25:27.988Z,40.48
2023-03-15T09:27:54.905Z,40.62
2023-03-15T09:30:22.190Z,40.39
2023-03-15T09:32:49.612Z,40.72
2023-03-15T09:35:17.700Z,40.73
2023-03-15T09:37:44.589Z,40.42
2023-03-15T09:40:30.759Z,39.75
2023-03-15T09:43:01.027Z,38.85
2023-03-15T09:45:27.878Z,38.35
2023-03-15T09:47:54.639Z,38.25
2023-03-15T09:50:22.902Z,37.37
2023-03-15T09:53:10.454Z,36.13
2023-03-15T09:55:37.776Z,35.26
2023-03-15T09:58:08.484Z,34.87
2023-03-15T10:00:42.208Z,34.80
2023-03-15T10:03:15.391Z,34.26
2023-03-15T10:05:44.538Z,34.63
2023-03-15T10:08:12.791Z,35.67
2023-03-15T10:10:44.781Z,35.19
2023-03-15T10:13:12.744Z,34.40
2023-03-15T10:15:43.617Z,33.28
2023-03-15T10:18:32.665Z,32.76
2023-03-15T10:21:07.490Z,32.11
2023-03-15T10:23:57.902Z,32.31
2023-03-15T10:26:26.541Z,31.49
2023-03-15T10:28:53.401Z,31.25
2023-03-15T10:31:32.851Z,31.07
2023-03-15T10:34:11.817Z,30.58
2023-03-15T10:36:43.735Z,30.71
2023-03-15T10:39:11.076Z,31.19
2023-03-15T10:41:39.185Z,31.84
2023-03-15T10:44:15.615Z,31.69
2023-03-15T10:46:44.264Z,31.33
2023-03-15T10:49:15.225Z,30.61
2023-03-15T10:51:42.982Z,31.01
2023-03-15T10:54:13.556Z,30.87
2023-03-15T10:56:54.106Z,30.61
2023-03-15T10:59:23.961Z,30.70
2023-03-15T11:01:53.714Z,30.85
2023-03-15T11:04:26.933Z,30.01
2023-03-15T11:06:57.700Z,29.71
2023-03-15T11:09:26.318Z,30.25
2023-03-15T11:12:00.698Z,30.87
2023-03-15T11:14:36.863Z,30.90
2023-03-15T11:17:05.152Z,30.98
2023-03-15T11:19:33.602Z,30.65
2023-03-15T11:22:06.341Z,30.44
2023-03-15T11:24:34.666Z,30.37
2023-03-15T11:27:03.536Z,30.34
2023-03-15T11:29:31.725Z,30.11
2023-03-15T11:32:00.374Z,29.65
2023-03-15T11:34:38.203Z,29.17
2023-03-15T11:37:24.927Z,28.60
2023-03-15T11:40:08.780Z,29.50
2023-03-15T11:42:58.174Z,29.41
2023-03-15T11:45:42.389Z,30.06
2023-03-15T11:48:28.901Z,30.60
2023-03-15T11:50:56.267Z,29.98
2023-03-15T11:53:23.731Z,30.15
2023-03-15T11:55:53.368Z,29.60
2023-03-15T11:58:30.816Z,29.56
2023-03-15T12:01:01.549Z,29.80
2023-03-15T12:03:35.538Z,29.58
2023-03-15T12:06:06.499Z,29.89
2023-03-15T12:08:51.772Z,29.82
2023-03-15T12:11:21.804Z,30.41
2023-03-15T12:13:58.377Z,30.71
2023-03-15T12:16:42.821Z,30.73
2023-03-15T12:19:10.998Z,31.16
2023-03-15T12:21:38.877Z,30.87
2023-03-15T12:24:07.131Z,30.89
2023-03-15T12:26:46.774Z,30.00
2023-03-15T12:29:18.344Z,30.17
2023-03-15T12:31:51.355Z,30.32
2023-03-15T12:34:37.861Z,31.04
2023-03-15T12:37:16.562Z,31.69
2023-03-15T12:39:45.759Z,32.80
2023-03-15T12:42:34.288Z,33.62
2023-03-15T12:45:21.819Z,34.63
2023-03-15T12:47:51.723Z,34.84
2023-03-15T12:50:37.419Z,35.70
2023-03-15T12:53:05.183Z,36.41
2023-03-15T12:55:32.425Z,36.75
2023-03-15T12:58:00.393Z,37.19
2023-03-15T13:00:28.668Z,38.18
2023-03-15T13:03:03.861Z,38.59
2023-03-15T13:05:37.104Z,38.98
2023-03-15T13:08:04.213Z,39.11
2023-03-15T13:10:52.103Z,39.33
2023-03-15T13:13:31.375Z,39.90
2023-03-15T13:16:18.572Z,40.71
2023-03-15T13:18:52.355Z,41.28
2023-03-15T13:21:31.590Z,41.71
2023-03-15T13:23:59.860Z,41.93
2023-03-15T13:26:48.023Z,42.20
2023-03-15T13:29:17.209Z,42.72
2023-03-15T13:31:44.864Z,43.12
2023-03-15T13:34:16.833Z,43.63
2023-03-15T13:36:53.409Z,44.07
2023-03-15T13:39:25.260Z,44.19
2023-03-15T13:42:03.975Z,44.74
2023-03-15T13:44:31.582Z,45.24
2023-03-15T13:46:58.475Z,45.43
2023-03-15T13:49:25.337Z,45.43
2023-03-15T13:51:52.639Z,45.84
2023-03-15T13:54:21.235Z,45.66
2023-03-15T13:56:56.236Z,45.61
2023-03-15T13:59:24.263Z,45.31
2023-03-15T14:01:57.047Z,45.00
2023-03-15T14:04:28.874Z,44.95
2023-03-15T14:07:17.162Z,45.12
2023-03-15T14:09:44.607Z,45.37
2023-03-15T14:12:39.645Z,45.51
2023-03-15T14:15:14.352Z,45.72
2023-03-15T14:17:50.500Z,45.58
2023-03-15T14:20:17.854Z,45.53
2023-03-15T14:22:47.067Z,45.54
2023-03-15T14:25:21.127Z,45.75
2023-03-15T14:27:48.009Z,45.94
2023-03-15T14:30:19.665Z,46.16
2023-03-15T14:32:52.637Z,46.09
2023-03-15T14:35:21.949Z,46.17
2023-03-15T14:38:00.640Z,46.03
2023-03-15T14:40:29.566Z,46.19
2023-03-15T14:42:57.139Z,46.26
2023-03-15T14:45:24.849Z,46.62
2023-03-15T14:47:58.062Z,46.98
2023-03-15T14:50:28.049Z,46.84
2023-03-15T14:52:56.127Z,47.00
2023-03-15T14:55:28.031Z,47.17
2023-03-15T14:57:56.719Z,47.03
2023-03-15T15:00:26.974Z,47.10
2023-03-15T15:02:55.615Z,47.00
2023-03-15T15:05:26.952Z,46.90
2023-03-15T15:08:02.329Z,47.02
2023-03-15T15:10:30.176Z,47.08
2023-03-15T15:13:05.902Z,47.06
2023-03-15T15:15:53.547Z,47.35
2023-03-15T15:18:24.911Z,47.46
2023-03-15T15:20:55.059Z,47.52
2023-03-15T15:23:28.758Z,47.61
2023-03-15T15:25:58.547Z,47.42
2023-03-15T15:28:35.229Z,47.56
2023-03-15T15:31:03.732Z,47.66
2023-03-15T15:33:34.545Z,47.65
2023-03-15T15:36:01.986Z,47.64
2023-03-15T15:38:42.567Z,47.73
2023-03-15T15:41:13.392Z,47.77
2023-03-15T15:43:41.325Z,47.59
2023-03-15T15:46:09.669Z,47.33
2023-03-15T15:48:39.853Z,47.59
2023-03-15T15:51:15.572Z,47.40
2023-03-15T15:53:42.988Z,47.22
2023-03-15T15:56:13.546Z,47.33
2023-03-15T15:58:41.376Z,47.75
2023-03-15T16:01:13.454Z,48.15
2023-03-15T16:03:45.993Z,48.46
2023-03-15T16:06:15.645Z,48.53
2023-03-15T16:08:43.324Z,48.92
2023-03-15T16:11:16.058Z,49.22
2023-03-15T16:13:43.767Z,49.57
2023-03-15T16:16:14.941Z,49.87
2023-03-15T16:18:42.736Z,50.36
2023-03-15T16:21:18.378Z,51.18
2023-03-15T16:23:45.522Z,52.11
2023-03-15T16:26:13.831Z,52.98
2023-03-15T16:28:41.463Z,54.07
2023-03-15T16:31:09.056Z,54.55
2023-03-15T16:33:53.127Z,55.69
2023-03-15T16:36:25.926Z,56.90
2023-03-15T16:38:54.706Z,57.57
2023-03-15T16:41:23.004Z,58.20
2023-03-15T16:43:50.202Z,59.65
2023-03-15T16:46:17.263Z,60.14
2023-03-15T16:48:47.259Z,60.87
2023-03-15T16:51:19.709Z,61.32
2023-03-15T16:53:46.945Z,61.84
2023-03-15T16:56:16.160Z,62.61
2023-03-15T16:58:46.110Z,62.79
2023-03-15T17:01:13.278Z,63.37
2023-03-15T17:03:40.382Z,63.73
2023-03-15T17:06:22.624Z,63.87
2023-03-15T17:08:50.096Z,64.61
2023-03-15T17:11:17.168Z,64.78
2023-03-15T17:13:45.508Z,65.12
2023-03-15T17:16:14.545Z,65.70
2023-03-15T17:18:42.504Z,65.83
2023-03-15T17:21:16.164Z,65.85
2023-03-15T17:23:43.185Z,66.41
2023-03-15T17:26:16.263Z,66.81
2023-03-15T17:28:43.914Z,67.81
2023-03-15T17:31:24.533Z,68.23
2023-03-15T17:34:01.180Z,69.55
2023-03-15T17:36:28.873Z,69.35
2023-03-15T17:39:02.363Z,69.87
2023-03-15T17:41:36.736Z,70.20
2023-03-15T17:44:09.000Z,70.01
2023-03-15T17:46:36.393Z,70.54
2023-03-15T17:49:09.605Z,71.81
2023-03-15T17:51:36.835Z,72.68
2023-03-15T17:54:11.548Z,73.30
2023-03-15T17:56:38.283Z,73.96
2023-03-15T17:59:05.535Z,75.20
2023-03-15T18:01:32.829Z,75.64
2023-03-15T18:04:04.160Z,77.29
2023-03-15T18:06:32.622Z,78.33
2023-03-15T18:09:00.797Z,79.84
2023-03-15T18:11:35.418Z,80.54
2023-03-15T18:14:03.164Z,80.42
2023-03-15T18:16:33.341Z,81.34
2023-03-15T18:19:00.097Z,81.91
2023-03-15T18:21:27.276Z,83.98
2023-03-15T18:23:59.655Z,85.11
2023-03-15T18:26:35.499Z,85.21
2023-03-15T18:29:07.782Z,86.24
2023-03-15T18:31:37.391Z,87.31
2023-03-15T18:34:06.373Z,90.05
2023-03-15T18:36:34.396Z,93.36
2023-03-15T18:39:01.705Z,93.96
2023-03-15T18:41:28.725Z,95.16
2023-03-15T18:43:55.502Z,96.38
2023-03-15T18:46:26.023Z,98.89
2023-03-15T18:49:00.329Z,100.00
2023-03-15T18:51:30.208Z,100.00
2023-03-15T18:53:56.924Z,100.00
2023-03-15T18:56:25.201Z,100.00
2023-03-15T18:58:57.217Z,100.00
2023-03-15T19:01:28.400Z,100.00
2023-03-15T19:03:56.530Z,100.00
2023-03-15T19:06:27.776Z,100.00
2023-03-15T19:08:56.924Z,100.00
2023-03-15T19:11:31.192Z,100.00
2023-03-15T19:14:04.382Z,100.00
2023-03-15T19:16:32.120Z,100.00
2023-03-15T19:19:10.941Z,100.00
2023-03-15T19:21:41.851Z,100.00
2023-03-15T19:24:09.079Z,100.00
2023-03-15T19:26:36.269Z,100.00
2023-03-15T19:29:05.261Z,100.00
2023-03-15T19:31:32.744Z,100.00
2023-03-15T19:34:06.066Z,100.00
2023-03-15T19:36:36.080Z,100.00
2023-03-15T19:39:05.279Z,100.00
2023-03-15T19:41:33.340Z,100.00
2023-03-15T19:44:02.901Z,100.00
2023-03-15T19:46:30.082Z,100.00
2023-03-15T19:48:57.286Z,100.00
2023-03-15T19:51:24.163Z,100.00
2023-03-15T19:53:52.170Z,100.00
2023-03-15T19:56:19.316Z,100.00
2023-03-15T19:58:47.479Z,100.00
2023-03-15T20:01:15.357Z,100.00
2023-03-15T20:03:42.289Z,100.00
2023-03-15T20:06:11.815Z,100.00
2023-03-15T20:08:38.794Z,100.00
2023-03-15T20:11:07.401Z,100.00
2023-03-15T20:13:35.647Z,100.00
2023-03-15T20:23:58.826Z,100.00
2023-03-15T20:26:28.734Z,100.00
2023-03-15T20:28:58.022Z,100.00
2023-03-15T20:31:30.052Z,100.00
2023-03-15T20:33:57.211Z,100.00
2023-03-15T20:36:24.066Z,100.00
2023-03-15T20:38:56.085Z,100.00
2023-03-15T20:41:23.282Z,100.00
2023-03-15T20:43:50.031Z,100.00
2023-03-15T20:46:23.896Z,100.00
2023-03-15T20:48:52.102Z,100.00
2023-03-15T20:51:19.185Z,100.00
2023-03-15T20:53:51.444Z,100.00
2023-03-15T20:56:18.509Z,100.00
2023-03-15T20:58:47.080Z,100.00
2023-03-15T21:01:16.475Z,100.00
2023-03-15T21:03:44.147Z,100.00
2023-03-15T21:06:11.029Z,100.00
2023-03-15T21:08:38.024Z,100.00
2023-03-15T21:11:06.098Z,100.00
2023-03-15T21:13:33.478Z,100.00
2023-03-15T21:16:03.622Z,100.00
2023-03-15T21:18:31.541Z,100.00
2023-03-15T21:20:59.422Z,100.00
2023-03-15T21:23:34.605Z,100.00
2023-03-15T21:26:02.827Z,100.00
2023-03-15T21:28:52.155Z,100.00
2023-03-15T21:31:19.141Z,100.00
2023-03-15T21:33:46.294Z,100.00
2023-03-15T21:36:13.180Z,100.00
2023-03-15T21:38:40.578Z,100.00
2023-03-15T21:41:13.648Z,100.00
2023-03-15T21:43:41.030Z,100.00
2023-03-15T21:46:09.301Z,100.00
2023-03-15T21:48:44.477Z,100.00
2023-03-15T21:51:14.554Z,100.00
2023-03-15T21:53:41.796Z,100.00
2023-03-15T21:56:08.714Z,100.00
2023-03-15T21:58:35.490Z,100.00
2023-03-15T22:01:05.974Z,100.00
2023-03-15T22:03:33.624Z,100.00
2023-03-15T22:06:01.255Z,100.00
2023-03-15T22:08:33.205Z,100.00
2023-03-15T22:11:00.055Z,100.00
2023-03-15T22:13:27.175Z,100.00
2023-03-15T22:15:54.393Z,100.00
2023-03-15T22:18:21.411Z,100.00
2023-03-15T22:20:49.561Z,100.00
2023-03-15T22:23:17.848Z,100.00
2023-03-15T22:25:45.488Z,100.00
2023-03-15T22:28:12.753Z,100.00
2023-03-15T22:30:39.845Z,100.00
2023-03-15T22:33:07.085Z,100.00
2023-03-15T22:35:34.252Z,100.00
2023-03-15T22:38:09.271Z,100.00
2023-03-15T22:40:37.584Z,100.00
2023-03-15T22:43:04.705Z,100.00
2023-03-15T22:45:38.370Z,100.00
2023-03-15T22:48:05.241Z,100.00
2023-03-15T22:50:37.605Z,100.00
2023-03-15T22:53:04.381Z,100.00
2023-03-15T22:55:31.132Z,100.00
2023-03-15T22:57:57.953Z,100.00
2023-03-15T23:00:25.052Z,100.00
2023-03-15T23:02:52.134Z,100.00
2023-03-15T23:05:21.412Z,100.00
2023-03-15T23:07:53.801Z,100.00
2023-03-15T23:10:23.087Z,100.00
2023-03-15T23:12:50.751Z,100.00
2023-03-15T23:15:17.899Z,100.00
2023-03-15T23:17:47.863Z,100.00
2023-03-15T23:20:17.556Z,100.00
2023-03-15T23:22:47.850Z,100.00
2023-03-15T23:25:16.056Z,100.00
2023-03-15T23:27:45.948Z,100.00
2023-03-15T23:30:14.523Z,100.00
2023-03-15T23:32:42.024Z,100.00
2023-03-15T23:35:11.703Z,100.00
2023-03-15T23:37:39.113Z,100.00
2023-03-15T23:40:15.144Z,100.00
2023-03-15T23:42:44.638Z,100.00
2023-03-15T23:45:14.934Z,100.00
2023-03-15T23:47:46.808Z,100.00
2023-03-15T23:50:14.261Z,100.00
2023-03-15T23:52:41.218Z,100.00
2023-03-15T23:55:11.117Z,100.00
2023-03-15T23:57:38.265Z,100.00
